sensor_id;sensor_type;location;lat;lon;timestamp;P1;durP1;ratioP1;P2;durP2;ratioP2
33864;SDS011;20159;51.072;13.526;2023-04-25T00:01:21;4.90;;;4.43;;
33864;SDS011;20159;51.072;13.526;2023-04-25T00:03:47;5.00;;;4.50;;
33864;SDS011;20159;51.072;13.526;2023-04-25T00:06:13;5.05;;;4.43;;
33864;SDS011;20159;51.072;13.526;2023-04-25T00:08:39;5.07;;;4.25;;
33864;SDS011;20159;51.072;13.526;2023-04-25T00:11:05;5.03;;;4.63;;
33864;SDS011;20159;51.072;13.526;2023-04-25T00:13:30;4.60;;;4.03;;
33864;SDS011;20159;51.072;13.526;2023-04-25T00:15:56;5.28;;;4.13;;
33864;SDS011;20159;51.072;13.526;2023-04-25T00:18:22;5.90;;;4.78;;
33864;SDS011;20159;51.072;13.526;2023-04-25T00:20:49;4.80;;;4.30;;
33864;SDS011;20159;51.072;13.526;2023-04-25T00:23:17;5.05;;;4.38;;
33864;SDS011;20159;51.072;13.526;2023-04-25T00:25:44;4.60;;;4.20;;
33864;SDS011;20159;51.072;13.526;2023-04-25T00:28:10;4.93;;;4.43;;
33864;SDS011;20159;51.072;13.526;2023-04-25T00:30:36;5.45;;;4.50;;
33864;SDS011;20159;51.072;13.526;2023-04-25T00:33:01;5.00;;;4.50;;
33864;SDS011;20159;51.072;13.526;2023-04-25T00:35:27;5.65;;;4.78;;
33864;SDS011;20159;51.072;13.526;2023-04-25T00:37:53;8.35;;;4.80;;
33864;SDS011;20159;51.072;13.526;2023-04-25T00:40:19;5.97;;;4.82;;
33864;SDS011;20159;51.072;13.526;2023-04-25T00:42:45;5.28;;;4.78;;
33864;SDS011;20159;51.072;13.526;2023-04-25T00:45:12;6.43;;;5.22;;
33864;SDS011;20159;51.072;13.526;2023-04-25T00:47:40;6.05;;;5.22;;
33864;SDS011;20159;51.072;13.526;2023-04-25T00:50:06;5.90;;;5.20;;
33864;SDS011;20159;51.072;13.526;2023-04-25T00:52:33;6.22;;;5.20;;
33864;SDS011;20159;51.072;13.526;2023-04-25T00:54:58;5.70;;;5.10;;
33864;SDS011;20159;51.072;13.526;2023-04-25T00:57:27;6.40;;;5.18;;
33864;SDS011;20159;51.072;13.526;2023-04-25T00:59:55;5.50;;;5.00;;
33864;SDS011;20159;51.072;13.526;2023-04-25T01:02:21;6.68;;;5.20;;
33864;SDS011;20159;51.072;13.526;2023-04-25T01:04:47;6.32;;;5.32;;
33864;SDS011;20159;51.072;13.526;2023-04-25T01:07:13;6.80;;;5.45;;
33864;SDS011;20159;51.072;13.526;2023-04-25T01:09:39;6.63;;;5.43;;
33864;SDS011;20159;51.072;13.526;2023-04-25T01:12:05;6.93;;;5.55;;
33864;SDS011;20159;51.072;13.526;2023-04-25T01:14:30;7.15;;;6.10;;
33864;SDS011;20159;51.072;13.526;2023-04-25T01:16:56;7.05;;;6.28;;
33864;SDS011;20159;51.072;13.526;2023-04-25T01:19:23;7.45;;;6.25;;
33864;SDS011;20159;51.072;13.526;2023-04-25T01:21:49;8.10;;;6.20;;
33864;SDS011;20159;51.072;13.526;2023-04-25T01:24:15;7.93;;;6.70;;
33864;SDS011;20159;51.072;13.526;2023-04-25T01:26:41;7.47;;;6.20;;
33864;SDS011;20159;51.072;13.526;2023-04-25T01:29:13;7.40;;;6.63;;
33864;SDS011;20159;51.072;13.526;2023-04-25T01:31:39;8.13;;;6.97;;
33864;SDS011;20159;51.072;13.526;2023-04-25T01:34:04;7.15;;;6.45;;
33864;SDS011;20159;51.072;13.526;2023-04-25T01:36:39;9.23;;;6.15;;
33864;SDS011;20159;51.072;13.526;2023-04-25T01:39:05;6.55;;;5.82;;
33864;SDS011;20159;51.072;13.526;2023-04-25T01:41:31;6.93;;;6.05;;
33864;SDS011;20159;51.072;13.526;2023-04-25T01:43:57;7.85;;;7.05;;
33864;SDS011;20159;51.072;13.526;2023-04-25T01:46:22;7.38;;;6.32;;
33864;SDS011;20159;51.072;13.526;2023-04-25T01:48:48;7.82;;;6.43;;
33864;SDS011;20159;51.072;13.526;2023-04-25T01:51:14;12.88;;;6.72;;
33864;SDS011;20159;51.072;13.526;2023-04-25T01:53:40;8.95;;;7.10;;
33864;SDS011;20159;51.072;13.526;2023-04-25T01:56:06;7.72;;;6.93;;
33864;SDS011;20159;51.072;13.526;2023-04-25T01:58:31;10.13;;;7.50;;
33864;SDS011;20159;51.072;13.526;2023-04-25T02:00:57;8.55;;;7.25;;
33864;SDS011;20159;51.072;13.526;2023-04-25T02:03:23;7.68;;;6.68;;
33864;SDS011;20159;51.072;13.526;2023-04-25T02:05:48;7.47;;;6.22;;
33864;SDS011;20159;51.072;13.526;2023-04-25T02:08:15;8.07;;;6.47;;
33864;SDS011;20159;51.072;13.526;2023-04-25T02:10:42;9.13;;;7.60;;
33864;SDS011;20159;51.072;13.526;2023-04-25T02:13:08;8.25;;;7.28;;
33864;SDS011;20159;51.072;13.526;2023-04-25T02:15:33;8.10;;;7.03;;
33864;SDS011;20159;51.072;13.526;2023-04-25T02:17:59;8.68;;;7.13;;
33864;SDS011;20159;51.072;13.526;2023-04-25T02:20:28;9.88;;;7.00;;
33864;SDS011;20159;51.072;13.526;2023-04-25T02:22:55;8.68;;;7.70;;
33864;SDS011;20159;51.072;13.526;2023-04-25T02:25:21;10.27;;;7.25;;
33864;SDS011;20159;51.072;13.526;2023-04-25T02:27:47;9.02;;;7.65;;
33864;SDS011;20159;51.072;13.526;2023-04-25T02:30:13;8.73;;;7.30;;
33864;SDS011;20159;51.072;13.526;2023-04-25T02:32:39;8.10;;;7.30;;
33864;SDS011;20159;51.072;13.526;2023-04-25T02:35:05;10.57;;;7.90;;
33864;SDS011;20159;51.072;13.526;2023-04-25T02:37:32;8.98;;;7.93;;
33864;SDS011;20159;51.072;13.526;2023-04-25T02:39:59;9.18;;;8.20;;
33864;SDS011;20159;51.072;13.526;2023-04-25T02:42:28;8.43;;;7.53;;
33864;SDS011;20159;51.072;13.526;2023-04-25T02:44:54;8.63;;;7.78;;
33864;SDS011;20159;51.072;13.526;2023-04-25T02:47:20;10.75;;;8.43;;
33864;SDS011;20159;51.072;13.526;2023-04-25T02:49:45;9.43;;;8.48;;
33864;SDS011;20159;51.072;13.526;2023-04-25T02:52:11;9.68;;;8.25;;
33864;SDS011;20159;51.072;13.526;2023-04-25T02:54:37;9.10;;;8.20;;
33864;SDS011;20159;51.072;13.526;2023-04-25T02:57:03;9.93;;;8.43;;
33864;SDS011;20159;51.072;13.526;2023-04-25T02:59:29;10.70;;;8.82;;
33864;SDS011;20159;51.072;13.526;2023-04-25T03:01:55;9.48;;;8.18;;
33864;SDS011;20159;51.072;13.526;2023-04-25T03:04:20;9.82;;;8.82;;
33864;SDS011;20159;51.072;13.526;2023-04-25T03:06:48;11.43;;;9.13;;
33864;SDS011;20159;51.072;13.526;2023-04-25T03:09:14;9.57;;;8.60;;
33864;SDS011;20159;51.072;13.526;2023-04-25T03:11:40;12.18;;;9.68;;
33864;SDS011;20159;51.072;13.526;2023-04-25T03:14:05;9.38;;;8.43;;
33864;SDS011;20159;51.072;13.526;2023-04-25T03:16:31;10.77;;;8.85;;
33864;SDS011;20159;51.072;13.526;2023-04-25T03:18:56;10.35;;;8.93;;
33864;SDS011;20159;51.072;13.526;2023-04-25T03:21:22;12.38;;;9.07;;
33864;SDS011;20159;51.072;13.526;2023-04-25T03:23:48;10.65;;;9.07;;
33864;SDS011;20159;51.072;13.526;2023-04-25T03:26:13;10.43;;;8.88;;
33864;SDS011;20159;51.072;13.526;2023-04-25T03:28:39;10.90;;;9.00;;
33864;SDS011;20159;51.072;13.526;2023-04-25T03:31:05;11.23;;;8.70;;
33864;SDS011;20159;51.072;13.526;2023-04-25T03:33:30;10.05;;;8.60;;
33864;SDS011;20159;51.072;13.526;2023-04-25T03:35:56;11.50;;;8.35;;
33864;SDS011;20159;51.072;13.526;2023-04-25T03:38:22;9.02;;;8.10;;
33864;SDS011;20159;51.072;13.526;2023-04-25T03:40:48;10.38;;;9.27;;
33864;SDS011;20159;51.072;13.526;2023-04-25T03:43:13;10.00;;;8.73;;
33864;SDS011;20159;51.072;13.526;2023-04-25T03:45:39;11.65;;;9.63;;
33864;SDS011;20159;51.072;13.526;2023-04-25T03:48:04;10.57;;;9.32;;
33864;SDS011;20159;51.072;13.526;2023-04-25T03:50:30;10.88;;;9.73;;
33864;SDS011;20159;51.072;13.526;2023-04-25T03:52:55;13.65;;;9.23;;
33864;SDS011;20159;51.072;13.526;2023-04-25T03:55:21;11.57;;;10.30;;
33864;SDS011;20159;51.072;13.526;2023-04-25T03:57:46;14.32;;;10.32;;
33864;SDS011;20159;51.072;13.526;2023-04-25T04:00:12;11.63;;;9.98;;
33864;SDS011;20159;51.072;13.526;2023-04-25T04:02:38;11.20;;;9.98;;
33864;SDS011;20159;51.072;13.526;2023-04-25T04:05:04;12.20;;;9.85;;
33864;SDS011;20159;51.072;13.526;2023-04-25T04:07:30;11.00;;;9.63;;
33864;SDS011;20159;51.072;13.526;2023-04-25T04:09:57;10.45;;;9.35;;
33864;SDS011;20159;51.072;13.526;2023-04-25T04:12:23;12.95;;;10.60;;
33864;SDS011;20159;51.072;13.526;2023-04-25T04:14:49;10.45;;;9.25;;
33864;SDS011;20159;51.072;13.526;2023-04-25T04:17:14;12.60;;;9.82;;
33864;SDS011;20159;51.072;13.526;2023-04-25T04:19:40;11.63;;;9.73;;
33864;SDS011;20159;51.072;13.526;2023-04-25T04:22:06;11.70;;;9.30;;
33864;SDS011;20159;51.072;13.526;2023-04-25T04:24:31;10.90;;;9.55;;
33864;SDS011;20159;51.072;13.526;2023-04-25T04:26:57;12.30;;;9.50;;
33864;SDS011;20159;51.072;13.526;2023-04-25T04:29:23;10.65;;;9.60;;
33864;SDS011;20159;51.072;13.526;2023-04-25T04:31:49;9.90;;;8.95;;
33864;SDS011;20159;51.072;13.526;2023-04-25T04:34:16;10.80;;;8.82;;
33864;SDS011;20159;51.072;13.526;2023-04-25T04:36:43;11.43;;;8.68;;
33864;SDS011;20159;51.072;13.526;2023-04-25T04:39:11;14.02;;;8.02;;
33864;SDS011;20159;51.072;13.526;2023-04-25T04:41:37;8.93;;;8.02;;
33864;SDS011;20159;51.072;13.526;2023-04-25T04:44:02;9.07;;;7.60;;
33864;SDS011;20159;51.072;13.526;2023-04-25T04:46:28;8.32;;;6.50;;
33864;SDS011;20159;51.072;13.526;2023-04-25T04:48:56;8.50;;;7.07;;
33864;SDS011;20159;51.072;13.526;2023-04-25T04:51:21;9.10;;;6.53;;
33864;SDS011;20159;51.072;13.526;2023-04-25T04:53:47;8.77;;;6.88;;
33864;SDS011;20159;51.072;13.526;2023-04-25T04:56:12;9.25;;;6.38;;
33864;SDS011;20159;51.072;13.526;2023-04-25T04:58:38;7.55;;;6.18;;
33864;SDS011;20159;51.072;13.526;2023-04-25T05:01:03;7.55;;;6.72;;
33864;SDS011;20159;51.072;13.526;2023-04-25T05:03:29;7.65;;;5.72;;
33864;SDS011;20159;51.072;13.526;2023-04-25T05:05:54;7.72;;;5.97;;
33864;SDS011;20159;51.072;13.526;2023-04-25T05:08:20;7.10;;;6.05;;
33864;SDS011;20159;51.072;13.526;2023-04-25T05:10:45;7.13;;;5.53;;
33864;SDS011;20159;51.072;13.526;2023-04-25T05:13:11;6.25;;;5.05;;
33864;SDS011;20159;51.072;13.526;2023-04-25T05:15:46;7.45;;;5.18;;
33864;SDS011;20159;51.072;13.526;2023-04-25T05:18:11;5.40;;;4.90;;
33864;SDS011;20159;51.072;13.526;2023-04-25T05:20:37;6.18;;;4.75;;
33864;SDS011;20159;51.072;13.526;2023-04-25T05:23:02;6.70;;;4.90;;
33864;SDS011;20159;51.072;13.526;2023-04-25T05:25:28;6.75;;;4.55;;
33864;SDS011;20159;51.072;13.526;2023-04-25T05:27:54;6.95;;;4.63;;
33864;SDS011;20159;51.072;13.526;2023-04-25T05:30:23;5.45;;;4.00;;
33864;SDS011;20159;51.072;13.526;2023-04-25T05:32:48;5.45;;;4.47;;
33864;SDS011;20159;51.072;13.526;2023-04-25T05:35:15;5.70;;;4.05;;
33864;SDS011;20159;51.072;13.526;2023-04-25T05:37:40;6.72;;;4.55;;
33864;SDS011;20159;51.072;13.526;2023-04-25T05:40:06;4.85;;;3.90;;
33864;SDS011;20159;51.072;13.526;2023-04-25T05:42:33;5.05;;;4.22;;
33864;SDS011;20159;51.072;13.526;2023-04-25T05:44:59;4.82;;;4.05;;
33864;SDS011;20159;51.072;13.526;2023-04-25T05:47:25;6.32;;;4.30;;
33864;SDS011;20159;51.072;13.526;2023-04-25T05:49:51;5.97;;;4.15;;
33864;SDS011;20159;51.072;13.526;2023-04-25T05:52:16;6.72;;;4.22;;
33864;SDS011;20159;51.072;13.526;2023-04-25T05:54:42;5.38;;;4.25;;
33864;SDS011;20159;51.072;13.526;2023-04-25T05:57:07;6.18;;;4.40;;
33864;SDS011;20159;51.072;13.526;2023-04-25T05:59:33;5.10;;;4.43;;
33864;SDS011;20159;51.072;13.526;2023-04-25T06:01:59;5.50;;;4.47;;
33864;SDS011;20159;51.072;13.526;2023-04-25T06:04:25;6.55;;;4.53;;
33864;SDS011;20159;51.072;13.526;2023-04-25T06:06:51;5.72;;;4.30;;
33864;SDS011;20159;51.072;13.526;2023-04-25T06:09:16;5.45;;;4.50;;
33864;SDS011;20159;51.072;13.526;2023-04-25T06:11:51;6.32;;;4.85;;
33864;SDS011;20159;51.072;13.526;2023-04-25T06:14:16;5.35;;;4.18;;
33864;SDS011;20159;51.072;13.526;2023-04-25T06:16:42;7.10;;;4.30;;
33864;SDS011;20159;51.072;13.526;2023-04-25T06:19:07;5.32;;;4.60;;
33864;SDS011;20159;51.072;13.526;2023-04-25T06:21:33;5.28;;;4.35;;
33864;SDS011;20159;51.072;13.526;2023-04-25T06:23:58;6.35;;;4.68;;
33864;SDS011;20159;51.072;13.526;2023-04-25T06:26:24;5.32;;;4.35;;
33864;SDS011;20159;51.072;13.526;2023-04-25T06:28:49;5.55;;;4.22;;
33864;SDS011;20159;51.072;13.526;2023-04-25T06:31:18;6.38;;;4.70;;
33864;SDS011;20159;51.072;13.526;2023-04-25T06:33:43;6.22;;;4.47;;
33864;SDS011;20159;51.072;13.526;2023-04-25T06:36:09;5.72;;;4.22;;
33864;SDS011;20159;51.072;13.526;2023-04-25T06:38:35;6.40;;;4.15;;
33864;SDS011;20159;51.072;13.526;2023-04-25T06:41:03;5.15;;;3.83;;
33864;SDS011;20159;51.072;13.526;2023-04-25T06:43:28;5.97;;;3.95;;
33864;SDS011;20159;51.072;13.526;2023-04-25T06:45:57;5.05;;;4.13;;
33864;SDS011;20159;51.072;13.526;2023-04-25T06:48:23;6.65;;;4.68;;
33864;SDS011;20159;51.072;13.526;2023-04-25T06:50:48;6.65;;;4.32;;
33864;SDS011;20159;51.072;13.526;2023-04-25T06:53:14;6.55;;;4.57;;
33864;SDS011;20159;51.072;13.526;2023-04-25T06:55:40;5.93;;;4.22;;
33864;SDS011;20159;51.072;13.526;2023-04-25T06:58:05;4.93;;;3.55;;
33864;SDS011;20159;51.072;13.526;2023-04-25T07:00:32;5.05;;;4.30;;
33864;SDS011;20159;51.072;13.526;2023-04-25T07:02:58;5.60;;;4.22;;
33864;SDS011;20159;51.072;13.526;2023-04-25T07:05:24;5.88;;;3.88;;
33864;SDS011;20159;51.072;13.526;2023-04-25T07:07:49;6.97;;;3.67;;
33864;SDS011;20159;51.072;13.526;2023-04-25T07:10:15;6.28;;;3.75;;
33864;SDS011;20159;51.072;13.526;2023-04-25T07:12:40;5.50;;;3.45;;
33864;SDS011;20159;51.072;13.526;2023-04-25T07:15:06;6.00;;;3.65;;
33864;SDS011;20159;51.072;13.526;2023-04-25T07:17:33;6.07;;;2.85;;
33864;SDS011;20159;51.072;13.526;2023-04-25T07:19:58;5.30;;;2.97;;
33864;SDS011;20159;51.072;13.526;2023-04-25T07:22:24;7.40;;;3.65;;
33864;SDS011;20159;51.072;13.526;2023-04-25T07:24:51;5.82;;;3.92;;
33864;SDS011;20159;51.072;13.526;2023-04-25T07:27:18;5.15;;;3.03;;
33864;SDS011;20159;51.072;13.526;2023-04-25T07:29:44;3.92;;;2.88;;
33864;SDS011;20159;51.072;13.526;2023-04-25T07:32:09;4.32;;;3.10;;
33864;SDS011;20159;51.072;13.526;2023-04-25T07:34:37;4.50;;;2.55;;
33864;SDS011;20159;51.072;13.526;2023-04-25T07:37:03;4.53;;;2.90;;
33864;SDS011;20159;51.072;13.526;2023-04-25T07:39:29;6.07;;;3.35;;
33864;SDS011;20159;51.072;13.526;2023-04-25T07:41:55;5.53;;;3.33;;
33864;SDS011;20159;51.072;13.526;2023-04-25T07:44:23;4.25;;;3.08;;
33864;SDS011;20159;51.072;13.526;2023-04-25T07:46:49;3.97;;;2.83;;
33864;SDS011;20159;51.072;13.526;2023-04-25T07:49:14;4.35;;;3.17;;
33864;SDS011;20159;51.072;13.526;2023-04-25T07:51:40;5.18;;;3.38;;
33864;SDS011;20159;51.072;13.526;2023-04-25T07:54:08;3.42;;;2.72;;
33864;SDS011;20159;51.072;13.526;2023-04-25T07:56:34;4.75;;;2.80;;
33864;SDS011;20159;51.072;13.526;2023-04-25T07:58:59;4.65;;;3.25;;
33864;SDS011;20159;51.072;13.526;2023-04-25T08:01:25;4.20;;;2.95;;
33864;SDS011;20159;51.072;13.526;2023-04-25T08:03:51;5.32;;;3.25;;
33864;SDS011;20159;51.072;13.526;2023-04-25T08:06:17;5.20;;;3.20;;
33864;SDS011;20159;51.072;13.526;2023-04-25T08:08:43;4.00;;;3.03;;
33864;SDS011;20159;51.072;13.526;2023-04-25T08:11:09;6.50;;;3.40;;
33864;SDS011;20159;51.072;13.526;2023-04-25T08:13:34;5.00;;;3.47;;
33864;SDS011;20159;51.072;13.526;2023-04-25T08:16:00;4.20;;;2.97;;
33864;SDS011;20159;51.072;13.526;2023-04-25T08:18:25;5.82;;;3.75;;
33864;SDS011;20159;51.072;13.526;2023-04-25T08:20:54;6.10;;;3.70;;
33864;SDS011;20159;51.072;13.526;2023-04-25T08:23:25;5.22;;;3.58;;
33864;SDS011;20159;51.072;13.526;2023-04-25T08:25:51;5.70;;;3.70;;
33864;SDS011;20159;51.072;13.526;2023-04-25T08:28:29;4.85;;;3.58;;
33864;SDS011;20159;51.072;13.526;2023-04-25T08:30:55;5.32;;;3.72;;
33864;SDS011;20159;51.072;13.526;2023-04-25T08:33:20;7.63;;;4.13;;
33864;SDS011;20159;51.072;13.526;2023-04-25T08:35:46;5.40;;;3.38;;
33864;SDS011;20159;51.072;13.526;2023-04-25T08:38:11;5.35;;;4.00;;
33864;SDS011;20159;51.072;13.526;2023-04-25T08:40:38;4.97;;;4.05;;
33864;SDS011;20159;51.072;13.526;2023-04-25T08:43:04;6.75;;;4.30;;
33864;SDS011;20159;51.072;13.526;2023-04-25T08:45:36;6.10;;;4.60;;
33864;SDS011;20159;51.072;13.526;2023-04-25T08:48:04;9.20;;;4.25;;
33864;SDS011;20159;51.072;13.526;2023-04-25T08:50:33;5.40;;;4.68;;
33864;SDS011;20159;51.072;13.526;2023-04-25T08:52:59;7.18;;;5.50;;
33864;SDS011;20159;51.072;13.526;2023-04-25T08:55:29;6.03;;;4.70;;
33864;SDS011;20159;51.072;13.526;2023-04-25T08:57:56;6.75;;;5.70;;
33864;SDS011;20159;51.072;13.526;2023-04-25T09:00:22;7.03;;;4.60;;
33864;SDS011;20159;51.072;13.526;2023-04-25T09:02:48;5.45;;;3.70;;
33864;SDS011;20159;51.072;13.526;2023-04-25T09:05:14;5.45;;;3.85;;
33864;SDS011;20159;51.072;13.526;2023-04-25T09:07:39;5.32;;;4.32;;
33864;SDS011;20159;51.072;13.526;2023-04-25T09:10:05;5.90;;;4.13;;
33864;SDS011;20159;51.072;13.526;2023-04-25T09:12:31;5.60;;;4.57;;
33864;SDS011;20159;51.072;13.526;2023-04-25T09:15:10;4.32;;;3.35;;
33864;SDS011;20159;51.072;13.526;2023-04-25T09:17:37;7.85;;;4.70;;
33864;SDS011;20159;51.072;13.526;2023-04-25T09:20:07;4.57;;;3.67;;
33864;SDS011;20159;51.072;13.526;2023-04-25T09:22:37;6.55;;;4.30;;
33864;SDS011;20159;51.072;13.526;2023-04-25T09:25:04;6.82;;;4.35;;
33864;SDS011;20159;51.072;13.526;2023-04-25T09:27:37;5.35;;;4.43;;
33864;SDS011;20159;51.072;13.526;2023-04-25T09:30:15;5.95;;;4.22;;
33864;SDS011;20159;51.072;13.526;2023-04-25T09:32:42;8.82;;;4.40;;
33864;SDS011;20159;51.072;13.526;2023-04-25T09:35:09;4.97;;;4.47;;
33864;SDS011;20159;51.072;13.526;2023-04-25T09:37:36;4.50;;;3.72;;
33864;SDS011;20159;51.072;13.526;2023-04-25T09:40:04;3.90;;;3.30;;
33864;SDS011;20159;51.072;13.526;2023-04-25T09:42:32;6.30;;;4.13;;
33864;SDS011;20159;51.072;13.526;2023-04-25T09:45:01;5.05;;;4.07;;
33864;SDS011;20159;51.072;13.526;2023-04-25T09:47:27;5.80;;;4.60;;
33864;SDS011;20159;51.072;13.526;2023-04-25T09:49:53;8.32;;;4.85;;
33864;SDS011;20159;51.072;13.526;2023-04-25T09:52:20;5.47;;;4.13;;
33864;SDS011;20159;51.072;13.526;2023-04-25T09:54:48;4.60;;;3.72;;
33864;SDS011;20159;51.072;13.526;2023-04-25T09:57:16;5.55;;;4.15;;
33864;SDS011;20159;51.072;13.526;2023-04-25T09:59:44;4.93;;;4.18;;
33864;SDS011;20159;51.072;13.526;2023-04-25T10:02:11;7.32;;;4.65;;
33864;SDS011;20159;51.072;13.526;2023-04-25T10:04:38;6.68;;;4.47;;
33864;SDS011;20159;51.072;13.526;2023-04-25T10:07:06;6.20;;;5.22;;
33864;SDS011;20159;51.072;13.526;2023-04-25T10:09:32;9.40;;;5.43;;
33864;SDS011;20159;51.072;13.526;2023-04-25T10:12:01;8.18;;;5.20;;
33864;SDS011;20159;51.072;13.526;2023-04-25T10:14:29;7.30;;;5.05;;
33864;SDS011;20159;51.072;13.526;2023-04-25T10:16:55;6.50;;;4.93;;
33864;SDS011;20159;51.072;13.526;2023-04-25T10:19:23;6.43;;;4.95;;
33864;SDS011;20159;51.072;13.526;2023-04-25T10:21:54;5.45;;;4.63;;
33864;SDS011;20159;51.072;13.526;2023-04-25T10:24:32;5.32;;;4.53;;
33864;SDS011;20159;51.072;13.526;2023-04-25T10:27:00;5.50;;;4.50;;
33864;SDS011;20159;51.072;13.526;2023-04-25T10:29:27;6.25;;;4.63;;
33864;SDS011;20159;51.072;13.526;2023-04-25T10:31:52;5.70;;;4.65;;
33864;SDS011;20159;51.072;13.526;2023-04-25T10:34:18;6.93;;;4.97;;
33864;SDS011;20159;51.072;13.526;2023-04-25T10:36:51;6.43;;;5.28;;
33864;SDS011;20159;51.072;13.526;2023-04-25T10:39:21;8.07;;;5.47;;
33864;SDS011;20159;51.072;13.526;2023-04-25T10:41:53;7.25;;;5.75;;
33864;SDS011;20159;51.072;13.526;2023-04-25T10:44:21;8.52;;;5.35;;
33864;SDS011;20159;51.072;13.526;2023-04-25T10:46:46;8.35;;;5.75;;
33864;SDS011;20159;51.072;13.526;2023-04-25T10:49:28;9.18;;;5.22;;
33864;SDS011;20159;51.072;13.526;2023-04-25T10:52:14;11.98;;;6.18;;
33864;SDS011;20159;51.072;13.526;2023-04-25T10:54:54;6.78;;;5.55;;
33864;SDS011;20159;51.072;13.526;2023-04-25T10:57:29;7.43;;;5.13;;
33864;SDS011;20159;51.072;13.526;2023-04-25T11:00:20;7.57;;;4.35;;
33864;SDS011;20159;51.072;13.526;2023-04-25T11:02:51;6.93;;;3.92;;
33864;SDS011;20159;51.072;13.526;2023-04-25T11:05:34;8.82;;;4.20;;
33864;SDS011;20159;51.072;13.526;2023-04-25T11:08:01;6.70;;;3.60;;
33864;SDS011;20159;51.072;13.526;2023-04-25T11:10:29;7.43;;;3.70;;
33864;SDS011;20159;51.072;13.526;2023-04-25T11:12:59;8.45;;;3.00;;
33864;SDS011;20159;51.072;13.526;2023-04-25T11:15:25;3.20;;;2.22;;
33864;SDS011;20159;51.072;13.526;2023-04-25T11:17:51;6.53;;;3.10;;
33864;SDS011;20159;51.072;13.526;2023-04-25T11:20:17;6.70;;;3.22;;
33864;SDS011;20159;51.072;13.526;2023-04-25T11:22:44;5.13;;;3.13;;
33864;SDS011;20159;51.072;13.526;2023-04-25T11:25:11;5.45;;;3.30;;
33864;SDS011;20159;51.072;13.526;2023-04-25T11:30:19;4.20;;;2.83;;
33864;SDS011;20159;51.072;13.526;2023-04-25T11:32:46;6.07;;;3.65;;
33864;SDS011;20159;51.072;13.526;2023-04-25T11:35:12;6.88;;;3.65;;
33864;SDS011;20159;51.072;13.526;2023-04-25T11:37:41;6.15;;;3.67;;
33864;SDS011;20159;51.072;13.526;2023-04-25T11:40:08;6.88;;;3.50;;
33864;SDS011;20159;51.072;13.526;2023-04-25T11:42:44;6.60;;;3.28;;
33864;SDS011;20159;51.072;13.526;2023-04-25T11:45:11;7.50;;;2.95;;
33864;SDS011;20159;51.072;13.526;2023-04-25T11:47:37;4.30;;;3.15;;
33864;SDS011;20159;51.072;13.526;2023-04-25T11:50:03;5.88;;;3.30;;
33864;SDS011;20159;51.072;13.526;2023-04-25T11:55:04;5.18;;;2.85;;
33864;SDS011;20159;51.072;13.526;2023-04-25T11:57:33;4.47;;;2.65;;
33864;SDS011;20159;51.072;13.526;2023-04-25T12:00:09;6.50;;;3.15;;
33864;SDS011;20159;51.072;13.526;2023-04-25T12:02:37;6.50;;;2.88;;
33864;SDS011;20159;51.072;13.526;2023-04-25T12:05:06;7.80;;;3.05;;
33864;SDS011;20159;51.072;13.526;2023-04-25T12:07:33;9.30;;;2.97;;
33864;SDS011;20159;51.072;13.526;2023-04-25T12:09:59;4.40;;;2.90;;
33864;SDS011;20159;51.072;13.526;2023-04-25T12:12:32;8.50;;;3.10;;
33864;SDS011;20159;51.072;13.526;2023-04-25T12:15:07;7.03;;;3.08;;
33864;SDS011;20159;51.072;13.526;2023-04-25T12:17:34;8.13;;;3.08;;
33864;SDS011;20159;51.072;13.526;2023-04-25T12:20:00;9.52;;;3.88;;
33864;SDS011;20159;51.072;13.526;2023-04-25T12:22:32;7.88;;;3.45;;
33864;SDS011;20159;51.072;13.526;2023-04-25T12:24:58;7.43;;;3.03;;
33864;SDS011;20159;51.072;13.526;2023-04-25T12:27:23;7.15;;;3.20;;
33864;SDS011;20159;51.072;13.526;2023-04-25T12:29:52;8.23;;;3.80;;
33864;SDS011;20159;51.072;13.526;2023-04-25T12:32:19;10.20;;;4.05;;
33864;SDS011;20159;51.072;13.526;2023-04-25T12:34:44;9.05;;;4.10;;
33864;SDS011;20159;51.072;13.526;2023-04-25T12:37:10;10.27;;;3.97;;
33864;SDS011;20159;51.072;13.526;2023-04-25T12:39:36;6.40;;;3.60;;
33864;SDS011;20159;51.072;13.526;2023-04-25T12:42:02;7.40;;;3.40;;
33864;SDS011;20159;51.072;13.526;2023-04-25T12:44:28;10.07;;;3.83;;
33864;SDS011;20159;51.072;13.526;2023-04-25T12:46:53;9.80;;;4.32;;
33864;SDS011;20159;51.072;13.526;2023-04-25T12:49:19;8.55;;;3.83;;
33864;SDS011;20159;51.072;13.526;2023-04-25T12:51:45;9.10;;;4.15;;
33864;SDS011;20159;51.072;13.526;2023-04-25T12:54:11;8.90;;;4.18;;
33864;SDS011;20159;51.072;13.526;2023-04-25T12:56:37;7.55;;;4.20;;
33864;SDS011;20159;51.072;13.526;2023-04-25T12:59:03;10.88;;;4.68;;
33864;SDS011;20159;51.072;13.526;2023-04-25T13:01:28;7.90;;;4.28;;
33864;SDS011;20159;51.072;13.526;2023-04-25T13:03:54;9.35;;;4.78;;
33864;SDS011;20159;51.072;13.526;2023-04-25T13:06:20;8.20;;;4.20;;
33864;SDS011;20159;51.072;13.526;2023-04-25T13:08:47;8.63;;;4.43;;
33864;SDS011;20159;51.072;13.526;2023-04-25T13:11:12;10.95;;;4.32;;
33864;SDS011;20159;51.072;13.526;2023-04-25T13:13:39;9.82;;;3.97;;
33864;SDS011;20159;51.072;13.526;2023-04-25T13:16:05;9.40;;;4.10;;
33864;SDS011;20159;51.072;13.526;2023-04-25T13:18:32;11.77;;;3.38;;
33864;SDS011;20159;51.072;13.526;2023-04-25T13:20:58;8.68;;;4.07;;
33864;SDS011;20159;51.072;13.526;2023-04-25T13:23:24;8.77;;;4.10;;
33864;SDS011;20159;51.072;13.526;2023-04-25T13:25:51;6.93;;;3.65;;
33864;SDS011;20159;51.072;13.526;2023-04-25T13:28:17;9.48;;;4.07;;
33864;SDS011;20159;51.072;13.526;2023-04-25T13:30:43;8.90;;;3.85;;
33864;SDS011;20159;51.072;13.526;2023-04-25T13:33:08;9.18;;;4.05;;
33864;SDS011;20159;51.072;13.526;2023-04-25T13:35:35;12.30;;;4.70;;
33864;SDS011;20159;51.072;13.526;2023-04-25T13:38:02;12.77;;;4.28;;
33864;SDS011;20159;51.072;13.526;2023-04-25T13:40:27;8.55;;;4.35;;
33864;SDS011;20159;51.072;13.526;2023-04-25T13:42:53;8.00;;;4.03;;
33864;SDS011;20159;51.072;13.526;2023-04-25T13:45:19;10.35;;;4.22;;
33864;SDS011;20159;51.072;13.526;2023-04-25T13:47:45;8.27;;;4.22;;
33864;SDS011;20159;51.072;13.526;2023-04-25T13:50:11;9.10;;;4.25;;
33864;SDS011;20159;51.072;13.526;2023-04-25T13:52:36;10.35;;;4.18;;
33864;SDS011;20159;51.072;13.526;2023-04-25T13:55:02;8.55;;;3.90;;
33864;SDS011;20159;51.072;13.526;2023-04-25T13:57:28;11.73;;;4.60;;
33864;SDS011;20159;51.072;13.526;2023-04-25T13:59:55;8.90;;;5.03;;
33864;SDS011;20159;51.072;13.526;2023-04-25T14:02:21;12.30;;;4.65;;
33864;SDS011;20159;51.072;13.526;2023-04-25T14:04:46;8.80;;;4.45;;
33864;SDS011;20159;51.072;13.526;2023-04-25T14:07:12;12.50;;;4.97;;
33864;SDS011;20159;51.072;13.526;2023-04-25T14:09:40;15.48;;;4.70;;
33864;SDS011;20159;51.072;13.526;2023-04-25T14:12:06;10.07;;;4.50;;
33864;SDS011;20159;51.072;13.526;2023-04-25T14:14:32;6.78;;;4.10;;
33864;SDS011;20159;51.072;13.526;2023-04-25T14:16:57;10.07;;;4.20;;
33864;SDS011;20159;51.072;13.526;2023-04-25T14:19:23;8.65;;;4.43;;
33864;SDS011;20159;51.072;13.526;2023-04-25T14:21:49;10.65;;;4.43;;
33864;SDS011;20159;51.072;13.526;2023-04-25T14:24:15;9.27;;;4.30;;
33864;SDS011;20159;51.072;13.526;2023-04-25T14:26:41;12.15;;;4.43;;
33864;SDS011;20159;51.072;13.526;2023-04-25T14:29:07;9.88;;;4.13;;
33864;SDS011;20159;51.072;13.526;2023-04-25T14:31:33;7.07;;;4.30;;
33864;SDS011;20159;51.072;13.526;2023-04-25T14:34:00;9.15;;;3.95;;
33864;SDS011;20159;51.072;13.526;2023-04-25T14:36:29;7.88;;;3.90;;